createdAt,value
2023-03-08T00:02:25.704Z,2.00
2023-03-08T00:04:56.217Z,2.00
2023-03-08T00:07:24.202Z,2.00
2023-03-08T00:09:51.413Z,2.00
2023-03-08T00:12:20.098Z,2.00
2023-03-08T00:14:47.395Z,2.00
2023-03-08T00:17:15.469Z,2.00
2023-03-08T00:19:42.842Z,2.00
2023-03-08T00:22:10.464Z,2.00
2023-03-08T00:24:38.121Z,2.10
2023-03-08T00:27:05.311Z,2.00
2023-03-08T00:29:32.417Z,2.10
2023-03-08T00:31:59.609Z,2.20
2023-03-08T00:34:26.725Z,2.20
2023-03-08T00:36:54.068Z,2.30
2023-03-08T00:39:21.238Z,2.30
2023-03-08T00:41:48.360Z,2.30
2023-03-08T00:44:15.558Z,2.30
2023-03-08T00:46:42.789Z,2.20
2023-03-08T00:49:11.792Z,2.20
2023-03-08T00:51:38.920Z,2.20
2023-03-08T00:54:06.223Z,2.10
2023-03-08T00:56:33.404Z,2.10
2023-03-08T00:59:00.561Z,2.10
2023-03-08T01:01:27.691Z,2.10
2023-03-08T01:03:54.821Z,2.00
2023-03-08T01:06:22.300Z,1.90
2023-03-08T01:08:49.447Z,1.80
2023-03-08T01:11:25.419Z,1.80
2023-03-08T01:13:54.353Z,1.90
2023-03-08T01:16:30.813Z,1.80
2023-03-08T01:18:58.691Z,1.70
2023-03-08T01:21:26.978Z,1.70
2023-03-08T01:23:54.192Z,1.60
2023-03-08T01:26:24.469Z,1.70
2023-03-08T01:28:52.157Z,1.70
2023-03-08T01:31:30.087Z,1.60
2023-03-08T01:33:58.248Z,1.70
2023-03-08T01:36:27.003Z,1.70
2023-03-08T01:38:54.459Z,1.60
2023-03-08T01:41:25.901Z,1.70
2023-03-08T01:43:53.723Z,1.80
2023-03-08T01:46:33.703Z,1.90
2023-03-08T01:49:17.674Z,1.90
2023-03-08T01:51:47.296Z,1.90
2023-03-08T01:54:34.996Z,2.00
2023-03-08T01:57:30.837Z,2.00
2023-03-08T02:00:05.228Z,2.00
2023-03-08T02:02:40.666Z,2.00
2023-03-08T02:05:10.478Z,2.10
2023-03-08T02:07:37.678Z,2.00
2023-03-08T02:10:05.162Z,2.00
2023-03-08T02:12:32.957Z,2.10
2023-03-08T02:15:01.951Z,2.20
2023-03-08T02:17:29.421Z,2.20
2023-03-08T02:20:00.363Z,2.20
2023-03-08T02:22:27.821Z,2.20
2023-03-08T02:24:54.967Z,2.20
2023-03-08T02:27:27.073Z,2.20
2023-03-08T02:29:54.276Z,2.20
2023-03-08T02:32:21.517Z,2.20
2023-03-08T02:34:48.703Z,2.20
2023-03-08T02:37:15.897Z,2.20
2023-03-08T02:39:43.007Z,2.20
2023-03-08T02:42:10.287Z,2.10
2023-03-08T02:44:37.428Z,2.10
2023-03-08T02:47:04.717Z,2.10
2023-03-08T02:49:31.811Z,2.10
2023-03-08T02:51:59.385Z,2.10
2023-03-08T02:54:26.544Z,2.10
2023-03-08T02:56:53.803Z,2.20
2023-03-08T02:59:23.572Z,2.10
2023-03-08T03:01:51.087Z,2.10
2023-03-08T03:04:18.593Z,2.20
2023-03-08T03:06:45.797Z,2.30
2023-03-08T03:09:13.973Z,2.20
2023-03-08T03:11:41.857Z,2.30
2023-03-08T03:14:09.001Z,2.30
2023-03-08T03:16:37.079Z,2.30
2023-03-08T03:19:04.353Z,2.40
2023-03-08T03:21:32.666Z,2.40
2023-03-08T03:23:59.847Z,2.40
2023-03-08T03:26:27.150Z,2.40
2023-03-08T03:28:57.610Z,2.30
2023-03-08T03:31:25.724Z,2.40
2023-03-08T03:33:53.423Z,2.20
2023-03-08T03:36:22.354Z,2.10
2023-03-08T03:38:50.208Z,2.00
2023-03-08T03:41:20.554Z,2.00
2023-03-08T03:43:48.492Z,2.10
2023-03-08T03:46:17.953Z,2.20
2023-03-08T03:48:45.197Z,2.20
2023-03-08T03:51:17.292Z,2.20
2023-03-08T03:53:44.797Z,2.20
2023-03-08T03:56:23.494Z,2.30
2023-03-08T03:58:51.622Z,2.40
2023-03-08T04:01:21.350Z,2.40
2023-03-08T04:03:49.018Z,2.50
2023-03-08T04:06:19.642Z,2.50
2023-03-08T04:08:47.374Z,2.50
2023-03-08T04:11:17.587Z,2.40
2023-03-08T04:13:44.859Z,2.40
2023-03-08T04:16:23.952Z,2.20
2023-03-08T04:18:58.588Z,2.20
2023-03-08T04:21:26.009Z,2.10
2023-03-08T04:23:53.525Z,2.00
2023-03-08T04:26:21.554Z,1.90
2023-03-08T04:28:49.040Z,1.80
2023-03-08T04:31:23.656Z,1.70
2023-03-08T04:33:52.142Z,1.70
2023-03-08T04:36:20.353Z,1.80
2023-03-08T04:38:48.399Z,1.80
2023-03-08T04:41:15.668Z,1.80
2023-03-08T04:43:52.839Z,1.80
2023-03-08T04:46:22.433Z,1.90
2023-03-08T04:48:49.982Z,1.90
2023-03-08T04:51:17.338Z,1.90
2023-03-08T04:53:45.523Z,1.90
2023-03-08T04:56:14.599Z,2.00
2023-03-08T04:58:42.810Z,2.00
2023-03-08T05:01:22.260Z,2.00
2023-03-08T05:03:50.056Z,2.00
2023-03-08T05:06:17.930Z,2.10
2023-03-08T05:08:45.355Z,2.00
2023-03-08T05:11:27.793Z,2.00
2023-03-08T05:13:56.732Z,2.00
2023-03-08T05:16:24.198Z,2.00
2023-03-08T05:18:51.522Z,1.90
2023-03-08T05:21:21.473Z,2.00
2023-03-08T05:23:48.760Z,2.00
2023-03-08T05:26:18.109Z,2.00
2023-03-08T05:28:45.554Z,1.90
2023-03-08T05:31:15.271Z,1.90
2023-03-08T05:33:44.268Z,1.90
2023-03-08T05:36:12.389Z,1.80
2023-03-08T05:38:39.909Z,1.80
2023-03-08T05:41:09.836Z,1.80
2023-03-08T05:43:36.956Z,1.90
2023-03-08T05:46:12.845Z,1.90
2023-03-08T05:48:40.841Z,1.80
2023-03-08T05:51:13.489Z,1.80
2023-03-08T05:53:41.008Z,1.80
2023-03-08T05:56:28.472Z,1.90
2023-03-08T05:58:55.827Z,1.90
2023-03-08T06:01:25.607Z,1.90
2023-03-08T06:03:55.095Z,1.90
2023-03-08T06:06:24.774Z,2.00
2023-03-08T06:08:52.206Z,1.90
2023-03-08T06:11:19.840Z,1.90
2023-03-08T06:13:47.073Z,2.10
2023-03-08T06:16:14.552Z,2.10
2023-03-08T06:18:42.881Z,2.20
2023-03-08T06:21:14.036Z,2.30
2023-03-08T06:23:41.866Z,2.30
2023-03-08T06:26:10.526Z,2.40
2023-03-08T06:28:40.274Z,2.30
2023-03-08T06:31:08.933Z,2.40
2023-03-08T06:33:36.174Z,2.50
2023-03-08T06:36:06.670Z,2.50
2023-03-08T06:38:36.347Z,2.60
2023-03-08T06:41:04.589Z,2.70
2023-03-08T06:43:31.937Z,2.80
2023-03-08T06:45:59.310Z,2.90
2023-03-08T06:48:26.425Z,3.00
2023-03-08T06:50:53.655Z,3.10
2023-03-08T06:53:20.923Z,3.20
2023-03-08T06:55:48.112Z,3.30
2023-03-08T06:58:15.303Z,3.40
2023-03-08T07:00:42.497Z,3.40
2023-03-08T07:03:12.249Z,3.60
2023-03-08T07:05:40.049Z,3.70
2023-03-08T07:08:08.060Z,3.70
2023-03-08T07:10:35.194Z,3.70
2023-03-08T07:13:03.114Z,3.80
2023-03-08T07:15:30.379Z,3.70
2023-03-08T07:17:57.739Z,3.70
2023-03-08T07:20:26.688Z,3.70
2023-03-08T07:22:54.385Z,3.80
2023-03-08T07:25:22.094Z,3.80
2023-03-08T07:27:49.218Z,3.80
2023-03-08T07:30:17.145Z,3.90
2023-03-08T07:32:44.396Z,3.90
2023-03-08T07:35:14.142Z,4.00
2023-03-08T07:37:44.154Z,4.20
2023-03-08T07:40:13.395Z,4.20
2023-03-08T07:42:40.556Z,4.50
2023-03-08T07:45:08.255Z,4.70
2023-03-08T07:47:35.432Z,4.90
2023-03-08T07:50:02.604Z,5.00
2023-03-08T07:52:31.079Z,5.10
2023-03-08T07:54:58.297Z,5.10
2023-03-08T07:57:25.555Z,5.30
2023-03-08T07:59:54.404Z,5.50
2023-03-08T08:02:21.768Z,5.40
2023-03-08T08:04:49.143Z,5.50
2023-03-08T08:07:16.875Z,5.70
2023-03-08T08:09:44.317Z,5.90
2023-03-08T08:12:11.746Z,5.90
2023-03-08T08:14:39.132Z,5.90
2023-03-08T08:17:06.275Z,6.00
2023-03-08T08:19:33.552Z,6.20
2023-03-08T08:22:00.786Z,6.50
2023-03-08T08:24:28.287Z,6.60
2023-03-08T08:26:55.481Z,6.70
2023-03-08T08:29:22.973Z,7.00
2023-03-08T08:31:52.807Z,6.90
2023-03-08T08:34:20.744Z,7.20
2023-03-08T08:36:48.256Z,7.10
2023-03-08T08:39:15.417Z,7.30
2023-03-08T08:41:42.801Z,7.40
2023-03-08T08:44:10.020Z,7.40
2023-03-08T08:46:38.164Z,7.40
2023-03-08T08:49:07.985Z,7.50
2023-03-08T08:51:35.147Z,7.60
2023-03-08T08:54:02.484Z,7.70
2023-03-08T08:56:30.413Z,7.90
2023-03-08T08:59:00.665Z,7.80
2023-03-08T09:01:32.830Z,8.00
2023-03-08T09:04:00.428Z,7.80
2023-03-08T09:06:31.041Z,7.80
2023-03-08T09:08:59.049Z,7.90
2023-03-08T09:11:27.813Z,7.80
2023-03-08T09:13:55.396Z,7.80
2023-03-08T09:16:25.771Z,8.00
2023-03-08T09:18:54.199Z,8.10
2023-03-08T09:21:21.362Z,8.10
2023-03-08T09:23:48.601Z,8.30
2023-03-08T09:26:15.810Z,8.40
2023-03-08T09:28:43.261Z,8.40
2023-03-08T09:31:18.400Z,8.20
2023-03-08T09:33:48.389Z,8.40
2023-03-08T09:36:15.827Z,8.60
2023-03-08T09:38:42.995Z,8.80
2023-03-08T09:41:19.422Z,8.80
2023-03-08T09:44:27.740Z,8.80
2023-03-08T09:47:05.172Z,8.70
2023-03-08T09:49:35.088Z,8.80
2023-03-08T09:52:14.298Z,8.80
2023-03-08T09:54:42.269Z,8.80
2023-03-08T09:57:24.573Z,8.80
2023-03-08T09:59:55.980Z,8.60
2023-03-08T10:02:48.026Z,8.70
2023-03-08T10:05:30.379Z,8.70
2023-03-08T10:08:13.803Z,8.60
2023-03-08T10:11:15.529Z,8.60
2023-03-08T10:13:47.614Z,8.50
2023-03-08T10:16:49.141Z,8.40
2023-03-08T10:19:33.249Z,8.50
2023-03-08T10:22:12.987Z,8.40
2023-03-08T10:24:46.756Z,8.40
2023-03-08T10:27:23.553Z,8.20
2023-03-08T10:29:56.800Z,8.50
2023-03-08T10:32:25.557Z,8.70
2023-03-08T10:34:53.371Z,8.90
2023-03-08T10:37:23.968Z,9.00
2023-03-08T10:39:55.224Z,9.40
2023-03-08T10:42:28.157Z,9.40
2023-03-08T10:45:20.951Z,9.50
2023-03-08T10:48:02.487Z,9.50
2023-03-08T10:50:37.542Z,9.70
2023-03-08T10:53:17.513Z,9.60
2023-03-08T10:55:47.444Z,9.50
2023-03-08T10:58:35.149Z,9.90
2023-03-08T11:01:24.616Z,9.60
2023-03-08T11:04:15.953Z,9.40
2023-03-08T11:06:43.777Z,9.80
2023-03-08T11:09:30.474Z,10.10
2023-03-08T11:11:59.329Z,10.40
2023-03-08T11:14:28.097Z,10.30
2023-03-08T11:17:13.936Z,10.00
2023-03-08T11:20:29.169Z,10.20
2023-03-08T11:23:05.145Z,10.10
2023-03-08T11:25:38.285Z,10.20
2023-03-08T11:28:23.854Z,10.40
2023-03-08T11:31:03.043Z,10.60
2023-03-08T11:33:36.462Z,10.50
2023-03-08T11:36:31.700Z,10.80
2023-03-08T11:39:24.728Z,10.80
2023-03-08T11:42:30.224Z,10.40
2023-03-08T11:45:14.090Z,10.20
2023-03-08T11:47:51.543Z,10.30
2023-03-08T11:50:18.777Z,10.20
2023-03-08T11:53:01.042Z,10.40
2023-03-08T11:55:39.796Z,10.40
2023-03-08T11:58:16.113Z,10.30
2023-03-08T12:00:46.630Z,10.30
2023-03-08T12:03:21.795Z,10.40
2023-03-08T12:05:55.598Z,10.40
2023-03-08T12:08:46.006Z,10.80
2023-03-08T12:11:24.001Z,10.90
2023-03-08T12:13:56.991Z,11.20
2023-03-08T12:16:34.202Z,11.40
2023-03-08T12:19:16.629Z,11.60
2023-03-08T12:22:12.424Z,11.50
2023-03-08T12:25:00.853Z,11.50
2023-03-08T12:27:48.611Z,11.70
2023-03-08T12:30:23.778Z,11.50
2023-03-08T12:32:54.771Z,11.20
2023-03-08T12:35:29.987Z,11.10
2023-03-08T12:38:25.550Z,11.10
2023-03-08T12:40:54.880Z,11.10
2023-03-08T12:43:22.049Z,11.00
2023-03-08T12:46:01.622Z,10.90
2023-03-08T12:48:32.132Z,10.90
2023-03-08T12:51:11.720Z,11.00
2023-03-08T12:53:49.045Z,11.10
2023-03-08T12:56:33.916Z,11.20
2023-03-08T12:59:29.781Z,11.20
2023-03-08T13:01:56.863Z,11.10
2023-03-08T13:04:41.335Z,11.20
2023-03-08T13:07:26.693Z,11.00
2023-03-08T13:10:15.477Z,11.00
2023-03-08T13:13:23.558Z,11.10
2023-03-08T13:16:31.911Z,11.00
2023-03-08T13:19:15.429Z,11.10
2023-03-08T13:22:08.531Z,11.20
2023-03-08T13:24:38.984Z,11.40
2023-03-08T13:27:12.370Z,11.30
2023-03-08T13:29:41.736Z,11.10
2023-03-08T13:32:16.172Z,11.10
2023-03-08T13:34:46.393Z,11.10
2023-03-08T13:37:25.229Z,11.10
2023-03-08T13:39:57.213Z,11.10
2023-03-08T13:42:26.603Z,11.00
2023-03-08T13:45:06.020Z,10.90
2023-03-08T13:47:35.590Z,10.70
2023-03-08T13:50:04.952Z,10.70
2023-03-08T13:52:36.334Z,10.70
2023-03-08T13:55:07.454Z,10.80
2023-03-08T13:57:37.288Z,10.80
2023-03-08T14:00:36.923Z,10.80
2023-03-08T14:03:08.371Z,10.90
2023-03-08T14:05:43.119Z,10.80
2023-03-08T14:08:23.348Z,10.80
2023-03-08T14:10:52.915Z,10.90
2023-03-08T14:13:27.958Z,11.10
2023-03-08T14:16:01.790Z,11.20
2023-03-08T14:18:38.946Z,11.40
2023-03-08T14:21:22.736Z,11.40
2023-03-08T14:24:02.066Z,11.50
2023-03-08T14:26:32.560Z,11.40
2023-03-08T14:29:13.503Z,11.40
2023-03-08T14:31:57.592Z,11.30
2023-03-08T14:34:36.088Z,11.30
2023-03-08T14:37:07.930Z,11.30
2023-03-08T14:39:37.505Z,11.30
2023-03-08T14:42:36.098Z,11.30
2023-03-08T14:45:06.764Z,11.40
2023-03-08T14:47:35.527Z,11.50
2023-03-08T14:50:18.706Z,11.70
2023-03-08T14:52:48.685Z,11.80
2023-03-08T14:55:26.310Z,11.90
2023-03-08T14:58:05.177Z,12.00
2023-03-08T15:00:32.445Z,12.10
2023-03-08T15:03:00.681Z,12.10
2023-03-08T15:05:30.142Z,12.10
2023-03-08T15:07:59.741Z,12.20
2023-03-08T15:10:40.086Z,12.10
2023-03-08T15:13:22.257Z,12.10
2023-03-08T15:15:49.922Z,12.00
2023-03-08T15:18:17.191Z,11.90
2023-03-08T15:20:46.433Z,11.80
2023-03-08T15:23:25.859Z,11.80
2023-03-08T15:25:53.613Z,11.60
2023-03-08T15:28:22.734Z,11.60
2023-03-08T15:30:52.888Z,11.50
2023-03-08T15:33:20.499Z,11.50
2023-03-08T15:35:48.443Z,11.50
2023-03-08T15:38:17.889Z,11.50
2023-03-08T15:40:45.028Z,11.50
2023-03-08T15:43:12.149Z,11.40
2023-03-08T15:45:39.361Z,11.30
2023-03-08T15:48:17.736Z,11.50
2023-03-08T15:50:45.684Z,11.40
2023-03-08T15:53:18.584Z,11.30
2023-03-08T15:55:53.327Z,11.20
2023-03-08T15:58:20.435Z,11.20
2023-03-08T16:00:47.948Z,11.10
2023-03-08T16:03:15.230Z,11.00
2023-03-08T16:05:42.411Z,11.10
2023-03-08T16:08:09.521Z,11.20
2023-03-08T16:10:40.547Z,11.20
2023-03-08T16:13:08.565Z,11.10
2023-03-08T16:15:38.920Z,11.10
2023-03-08T16:18:06.132Z,11.00
2023-03-08T16:20:33.365Z,11.20
2023-03-08T16:23:00.563Z,11.10
2023-03-08T16:25:27.864Z,11.10
2023-03-08T16:27:55.033Z,11.00
2023-03-08T16:30:22.557Z,11.10
2023-03-08T16:32:53.410Z,11.00
2023-03-08T16:35:21.264Z,10.90
2023-03-08T16:37:48.358Z,10.90
2023-03-08T16:40:16.877Z,11.00
2023-03-08T16:42:44.078Z,11.00
2023-03-08T16:45:14.734Z,11.00
2023-03-08T16:47:41.873Z,10.90
2023-03-08T16:50:12.963Z,10.90
2023-03-08T16:52:40.064Z,11.00
2023-03-08T16:55:08.053Z,10.80
2023-03-08T16:57:37.448Z,10.60
2023-03-08T17:00:07.198Z,10.40
2023-03-08T17:02:34.490Z,10.20
2023-03-08T17:05:01.654Z,10.00
2023-03-08T17:07:29.061Z,9.90
2023-03-08T17:09:57.161Z,9.80
2023-03-08T17:12:24.706Z,9.70
2023-03-08T17:14:52.276Z,9.50
2023-03-08T17:17:19.384Z,9.50
2023-03-08T17:19:46.583Z,9.50
2023-03-08T17:22:13.767Z,9.50
2023-03-08T17:24:40.897Z,9.50
2023-03-08T17:27:08.063Z,9.60
2023-03-08T17:29:35.880Z,9.80
2023-03-08T17:32:03.100Z,10.20
2023-03-08T17:34:30.321Z,10.30
2023-03-08T17:36:57.846Z,10.30
2023-03-08T17:39:25.271Z,10.50
2023-03-08T17:41:52.420Z,10.30
2023-03-08T17:44:19.832Z,9.90
2023-03-08T17:46:46.974Z,9.70
2023-03-08T17:49:16.209Z,9.70
2023-03-08T17:51:43.298Z,9.90
2023-03-08T17:54:11.881Z,9.90
2023-03-08T17:56:40.933Z,9.80
2023-03-08T17:59:08.363Z,9.60
2023-03-08T18:01:35.463Z,9.60
2023-03-08T18:04:05.408Z,9.60
2023-03-08T18:06:34.183Z,9.50
2023-03-08T18:09:04.246Z,9.30
2023-03-08T18:11:37.286Z,9.10
2023-03-08T18:14:10.668Z,8.90
2023-03-08T18:16:38.975Z,9.00
2023-03-08T18:19:06.838Z,8.90
2023-03-08T18:21:36.514Z,8.90
2023-03-08T18:24:05.152Z,8.90
2023-03-08T18:26:32.871Z,8.70
2023-03-08T18:29:00.037Z,8.50
2023-03-08T18:31:27.569Z,8.40
2023-03-08T18:33:55.495Z,8.30
2023-03-08T18:36:23.471Z,8.40
2023-03-08T18:38:50.749Z,8.30
2023-03-08T18:41:22.419Z,8.30
2023-03-08T18:43:51.177Z,8.10
2023-03-08T18:46:19.422Z,8.10
2023-03-08T18:48:50.776Z,8.10
2023-03-08T18:51:21.291Z,7.90
2023-03-08T18:53:48.555Z,7.90
2023-03-08T18:56:15.882Z,7.80
2023-03-08T18:58:43.024Z,7.80
2023-03-08T19:01:13.173Z,7.70
2023-03-08T19:03:41.353Z,7.70
2023-03-08T19:06:09.534Z,7.60
2023-03-08T19:08:36.821Z,7.50
2023-03-08T19:11:16.129Z,7.60
2023-03-08T19:13:44.137Z,7.30
2023-03-08T19:16:23.392Z,7.20
2023-03-08T19:18:54.146Z,7.30
2023-03-08T19:21:24.403Z,7.30
2023-03-08T19:23:52.080Z,7.20
2023-03-08T19:26:37.176Z,7.40
2023-03-08T19:29:12.896Z,7.60
2023-03-08T19:31:43.527Z,7.70
2023-03-08T19:34:13.328Z,7.80
2023-03-08T19:36:41.972Z,7.70
2023-03-08T19:39:16.481Z,7.80
2023-03-08T19:41:45.466Z,7.80
2023-03-08T19:44:12.720Z,7.90
2023-03-08T19:46:41.378Z,8.10
2023-03-08T19:49:12.910Z,8.10
2023-03-08T19:51:40.520Z,8.10
2023-03-08T19:54:08.030Z,7.80
2023-03-08T19:56:35.716Z,7.70
2023-03-08T19:59:03.272Z,7.60
2023-03-08T20:01:30.676Z,7.90
2023-03-08T20:03:58.131Z,8.20
2023-03-08T20:06:37.200Z,8.20
2023-03-08T20:09:06.697Z,8.30
2023-03-08T20:11:34.011Z,8.40
2023-03-08T20:14:01.491Z,8.50
2023-03-08T20:16:29.188Z,8.70
2023-03-08T20:18:57.759Z,8.90
2023-03-08T20:21:29.861Z,9.00
2023-03-08T20:23:59.660Z,9.10
2023-03-08T20:26:29.686Z,9.60
2023-03-08T20:28:58.137Z,10.00
2023-03-08T20:31:26.535Z,9.70
2023-03-08T20:33:53.754Z,9.60
2023-03-08T20:36:21.167Z,9.40
2023-03-08T20:38:48.377Z,9.30
2023-03-08T20:41:19.500Z,9.20
2023-03-08T20:43:48.554Z,9.10
2023-03-08T20:46:17.813Z,9.10
2023-03-08T20:48:46.436Z,9.50
2023-03-08T20:51:16.376Z,9.20
2023-03-08T20:53:44.242Z,9.40
2023-03-08T20:56:16.842Z,9.60
2023-03-08T20:58:44.369Z,10.10
2023-03-08T21:01:14.478Z,10.00
2023-03-08T21:03:41.937Z,10.00
2023-03-08T21:06:27.683Z,10.20
2023-03-08T21:08:54.838Z,10.40
2023-03-08T21:11:22.448Z,10.40
2023-03-08T21:13:51.151Z,10.40
2023-03-08T21:16:21.273Z,10.40
2023-03-08T21:18:52.850Z,10.50
2023-03-08T21:21:30.407Z,10.50
2023-03-08T21:23:59.775Z,10.50
2023-03-08T21:26:28.868Z,10.50
2023-03-08T21:28:58.769Z,10.50
2023-03-08T21:31:26.124Z,10.40
2023-03-08T21:33:53.908Z,10.60
2023-03-08T21:36:21.623Z,10.50
2023-03-08T21:38:53.969Z,10.60
2023-03-08T21:41:24.339Z,10.60
2023-03-08T21:43:51.874Z,10.70
2023-03-08T21:46:19.794Z,10.50
2023-03-08T21:48:47.515Z,10.70
2023-03-08T21:51:15.425Z,10.40
2023-03-08T21:53:43.380Z,10.50
2023-03-08T21:56:13.141Z,10.50
2023-03-08T21:58:40.736Z,10.40
2023-03-08T22:01:25.734Z,10.20
2023-03-08T22:03:54.478Z,10.10
2023-03-08T22:06:22.486Z,10.30
2023-03-08T22:08:50.434Z,10.30
2023-03-08T22:11:18.967Z,10.30
2023-03-08T22:13:55.110Z,10.10
2023-03-08T22:16:22.711Z,10.00
2023-03-08T22:18:53.588Z,10.00
2023-03-08T22:21:21.024Z,9.80
2023-03-08T22:23:52.514Z,9.80
2023-03-08T22:26:20.667Z,9.80
2023-03-08T22:28:48.099Z,10.00
2023-03-08T22:31:20.228Z,10.20
2023-03-08T22:33:47.772Z,10.20
2023-03-08T22:36:17.103Z,10.00
2023-03-08T22:38:44.286Z,9.90
2023-03-08T22:41:13.772Z,10.00
2023-03-08T22:43:41.963Z,10.10
2023-03-08T22:46:18.865Z,10.20
2023-03-08T22:48:47.641Z,10.40
2023-03-08T22:51:16.630Z,10.70
2023-03-08T22:53:43.904Z,10.80
2023-03-08T22:56:25.248Z,10.80
2023-03-08T22:58:52.841Z,10.60
2023-03-08T23:01:22.367Z,10.50
2023-03-08T23:03:50.677Z,10.30
2023-03-08T23:06:18.885Z,10.10
2023-03-08T23:08:46.929Z,10.00
2023-03-08T23:11:14.263Z,9.80
2023-03-08T23:13:41.929Z,9.50
2023-03-08T23:16:12.990Z,9.80
2023-03-08T23:18:40.530Z,10.00
2023-03-08T23:21:11.128Z,10.20
2023-03-08T23:23:38.538Z,10.20
2023-03-08T23:26:07.949Z,10.10
2023-03-08T23:28:36.435Z,9.90
2023-03-08T23:31:09.905Z,9.20
2023-03-08T23:33:37.148Z,8.80
2023-03-08T23:36:04.660Z,8.60
2023-03-08T23:38:31.811Z,8.40
2023-03-08T23:40:59.107Z,8.30
2023-03-08T23:43:26.324Z,8.30
2023-03-08T23:45:53.645Z,8.20
2023-03-08T23:48:20.767Z,8.00
2023-03-08T23:50:47.893Z,8.00
2023-03-08T23:53:15.043Z,7.90
2023-03-08T23:55:42.736Z,7.80
2023-03-08T23:58:09.865Z,7.70
